createdAt,value
2018-04-14T00:01:41.855Z,80.60
2018-04-14T00:04:16.383Z,78.07
2018-04-14T00:06:50.701Z,78.03
2018-04-14T00:09:25.117Z,81.60
2018-04-14T00:11:59.644Z,78.23
2018-04-14T00:14:33.972Z,79.00
2018-04-14T00:17:08.376Z,79.50
2018-04-14T00:19:42.981Z,73.73
2018-04-14T00:22:18.148Z,85.73
2018-04-14T00:24:52.665Z,79.77
2018-04-14T00:27:27.099Z,86.63
2018-04-14T00:30:01.717Z,74.50
2018-04-14T00:32:36.971Z,77.73
2018-04-14T00:35:11.974Z,79.83
2018-04-14T00:37:46.515Z,79.83
2018-04-14T00:40:21.039Z,81.20
2018-04-14T00:42:56.236Z,85.93
2018-04-14T00:45:30.680Z,81.53
2018-04-14T00:48:05.211Z,80.43
2018-04-14T00:50:39.627Z,85.90
2018-04-14T00:56:18.349Z,80.80
2018-04-14T00:58:53.324Z,81.70
2018-04-14T01:01:27.616Z,78.57
2018-04-14T01:04:02.053Z,74.90
2018-04-14T01:06:36.356Z,79.37
2018-04-14T01:09:10.692Z,78.40
2018-04-14T01:11:46.666Z,78.60
2018-04-14T01:14:21.071Z,79.13
2018-04-14T01:16:55.568Z,74.90
2018-04-14T01:19:30.032Z,81.60
2018-04-14T01:22:04.515Z,79.43
2018-04-14T01:24:39.049Z,78.83
2018-04-14T01:27:13.361Z,75.47
2018-04-14T01:29:47.799Z,74.00
2018-04-14T01:32:22.125Z,78.53
2018-04-14T01:34:56.500Z,68.57
2018-04-14T01:37:31.069Z,69.23
2018-04-14T01:40:05.778Z,69.77
2018-04-14T01:42:40.200Z,70.30
2018-04-14T01:45:14.532Z,63.83
2018-04-14T01:47:49.637Z,61.80
2018-04-14T01:50:24.025Z,65.97
2018-04-14T01:53:00.148Z,64.97
2018-04-14T01:55:34.667Z,63.43
2018-04-14T01:58:09.097Z,62.10
2018-04-14T02:00:43.620Z,62.73
2018-04-14T02:03:18.812Z,65.30
2018-04-14T02:05:53.192Z,65.27
2018-04-14T02:08:27.802Z,66.63
2018-04-14T02:11:02.284Z,62.97
2018-04-14T02:13:36.742Z,51.33
2018-04-14T02:16:11.241Z,52.23
2018-04-14T02:18:45.497Z,61.80
2018-04-14T02:21:19.820Z,52.27
2018-04-14T02:23:54.329Z,58.43
2018-04-14T02:26:29.021Z,57.40
2018-04-14T02:29:03.780Z,55.70
2018-04-14T02:31:39.207Z,57.93
2018-04-14T02:34:13.518Z,55.83
2018-04-14T02:36:49.481Z,49.53
2018-04-14T02:39:23.893Z,52.50
2018-04-14T02:41:58.424Z,51.40
2018-04-14T02:44:32.839Z,51.27
2018-04-14T02:47:07.181Z,53.60
2018-04-14T02:49:41.685Z,53.93
2018-04-14T02:52:16.988Z,56.80
2018-04-14T02:54:51.496Z,53.73
2018-04-14T02:57:25.964Z,55.07
2018-04-14T03:00:00.413Z,49.00
2018-04-14T03:02:34.720Z,48.13
2018-04-14T03:05:09.953Z,51.80
2018-04-14T03:07:44.269Z,55.20
2018-04-14T03:10:18.854Z,55.63
2018-04-14T03:12:53.316Z,57.53
2018-04-14T03:15:27.657Z,52.70
2018-04-14T03:18:02.081Z,59.77
2018-04-14T03:20:36.390Z,47.93
2018-04-14T03:23:10.852Z,53.20
2018-04-14T03:25:45.961Z,51.73
2018-04-14T03:28:20.272Z,53.27
2018-04-14T03:30:54.891Z,55.50
2018-04-14T03:33:29.260Z,48.93
2018-04-14T03:36:03.744Z,54.30
2018-04-14T03:38:38.260Z,59.07
2018-04-14T03:41:12.573Z,52.30
2018-04-14T03:43:47.204Z,55.77
2018-04-14T03:46:22.543Z,56.53
2018-04-14T03:48:57.244Z,50.83
2018-04-14T03:51:32.402Z,55.67
2018-04-14T03:54:07.208Z,55.53
2018-04-14T03:56:41.837Z,57.83
2018-04-14T03:59:18.713Z,61.00
2018-04-14T04:01:53.281Z,56.07
2018-04-14T04:04:28.512Z,49.83
2018-04-14T04:07:03.032Z,44.63
2018-04-14T04:09:37.329Z,55.87
2018-04-14T04:12:11.756Z,54.27
2018-04-14T04:14:46.291Z,56.43
2018-04-14T04:17:20.716Z,55.83
2018-04-14T04:20:07.680Z,49.00
2018-04-14T04:22:54.557Z,49.97
2018-04-14T04:25:39.636Z,57.50
2018-04-14T04:28:14.574Z,54.50
2018-04-14T04:30:48.628Z,48.77
2018-04-14T04:33:22.864Z,58.93
2018-04-14T04:35:57.084Z,52.87
2018-04-14T04:38:32.109Z,51.83
2018-04-14T04:41:06.323Z,55.23
2018-04-14T04:43:40.584Z,53.63
2018-04-14T04:46:14.853Z,50.83
2018-04-14T04:48:48.986Z,52.33
2018-04-14T04:51:23.216Z,57.60
2018-04-14T04:53:58.207Z,61.73
2018-04-14T04:56:32.569Z,52.40
2018-04-14T04:59:06.792Z,54.03
2018-04-14T05:01:40.992Z,60.00
2018-04-14T05:04:15.417Z,55.57
2018-04-14T05:06:49.839Z,55.50
2018-04-14T05:09:24.048Z,55.63
2018-04-14T05:11:58.285Z,50.90
2018-04-14T05:14:33.236Z,53.77
2018-04-14T05:17:07.312Z,52.27
2018-04-14T05:19:41.632Z,56.70
2018-04-14T05:22:15.948Z,57.67
2018-04-14T05:24:50.851Z,55.67
2018-04-14T05:27:25.232Z,54.60
2018-04-14T05:29:59.500Z,56.43
2018-04-14T05:32:33.625Z,54.47
2018-04-14T05:35:09.414Z,55.30
2018-04-14T05:37:43.600Z,53.13
2018-04-14T05:40:17.822Z,48.13
2018-04-14T05:42:52.038Z,48.13
2018-04-14T05:45:26.245Z,50.33
2018-04-14T05:48:00.464Z,51.83
2018-04-14T05:50:35.174Z,55.10
2018-04-14T05:53:09.353Z,52.43
2018-04-14T05:55:43.608Z,47.50
2018-04-14T05:58:17.884Z,49.47
2018-04-14T06:00:52.140Z,53.93
2018-04-14T06:03:27.179Z,51.67
2018-04-14T06:06:01.421Z,42.97
2018-04-14T06:08:35.638Z,48.80
2018-04-14T06:11:09.829Z,45.97
2018-04-14T06:13:44.052Z,48.23
2018-04-14T06:16:18.264Z,53.90
2018-04-14T06:18:52.461Z,48.50
2018-04-14T06:21:27.456Z,50.17
2018-04-14T06:24:01.584Z,54.50
2018-04-14T06:26:35.772Z,45.87
2018-04-14T06:29:10.051Z,46.47
2018-04-14T06:31:44.084Z,39.07
2018-04-14T06:34:18.352Z,47.03
2018-04-14T06:36:52.565Z,45.40
2018-04-14T06:39:26.812Z,44.73
2018-04-14T06:42:01.438Z,50.23
2018-04-14T06:44:35.484Z,48.03
2018-04-14T06:47:10.693Z,43.57
2018-04-14T06:49:44.832Z,44.23
2018-04-14T06:52:19.876Z,42.50
2018-04-14T06:54:53.968Z,46.17
2018-04-14T06:57:28.252Z,39.13
2018-04-14T07:00:02.339Z,40.43
2018-04-14T07:02:37.376Z,38.93
2018-04-14T07:05:11.753Z,40.60
2018-04-14T07:07:45.960Z,39.83
2018-04-14T07:10:20.480Z,29.10
2018-04-14T07:12:54.708Z,36.37
2018-04-14T07:15:29.035Z,32.70
2018-04-14T07:18:04.021Z,34.77
2018-04-14T07:20:38.302Z,29.63
2018-04-14T07:23:12.640Z,33.00
2018-04-14T07:25:48.451Z,33.43
2018-04-14T07:28:22.661Z,42.60
2018-04-14T07:30:57.986Z,45.97
2018-04-14T07:33:33.017Z,28.20
2018-04-14T07:36:07.169Z,36.30
2018-04-14T07:38:41.564Z,24.40
2018-04-14T07:41:15.896Z,25.27
2018-04-14T07:43:50.212Z,33.90
2018-04-14T07:46:24.420Z,22.77
2018-04-14T07:48:58.660Z,25.73
2018-04-14T07:51:32.950Z,34.13
2018-04-14T07:54:07.920Z,37.10
2018-04-14T07:56:42.109Z,38.43
2018-04-14T07:59:16.424Z,32.33
2018-04-14T08:01:50.775Z,38.10
2018-04-14T08:04:25.056Z,44.70
2018-04-14T08:06:59.284Z,43.53
2018-04-14T08:09:33.508Z,29.07
2018-04-14T08:12:07.828Z,31.57
2018-04-14T08:14:42.945Z,40.70
2018-04-14T08:17:17.275Z,39.57
2018-04-14T08:19:53.336Z,35.47
2018-04-14T08:22:27.565Z,37.53
2018-04-14T08:25:01.850Z,45.93
2018-04-14T08:27:36.066Z,30.03
2018-04-14T08:30:10.406Z,43.63
2018-04-14T08:32:44.682Z,34.37
2018-04-14T08:35:18.835Z,41.97
2018-04-14T08:37:53.065Z,37.60
2018-04-14T08:40:27.260Z,40.73
2018-04-14T08:43:01.691Z,42.43
2018-04-14T08:45:36.815Z,46.43
2018-04-14T08:48:11.126Z,46.60
2018-04-14T08:50:45.417Z,42.53
2018-04-14T08:53:19.564Z,46.73
2018-04-14T08:55:53.992Z,42.77
2018-04-14T08:58:28.213Z,43.63
2018-04-14T09:01:02.510Z,40.97
2018-04-14T09:03:37.664Z,41.63
2018-04-14T09:06:11.952Z,31.40
2018-04-14T09:08:46.308Z,34.30
2018-04-14T09:11:20.660Z,36.57
2018-04-14T09:13:54.831Z,46.17
2018-04-14T09:16:29.124Z,38.30
2018-04-14T09:19:04.160Z,42.07
2018-04-14T09:21:38.604Z,39.10
2018-04-14T09:24:13.128Z,37.23
2018-04-14T09:26:47.420Z,35.93
2018-04-14T09:29:22.078Z,28.50
2018-04-14T09:31:56.374Z,45.93
2018-04-14T09:34:30.701Z,39.30
2018-04-14T09:37:05.132Z,39.07
2018-04-14T09:39:40.276Z,39.63
2018-04-14T09:42:14.650Z,35.03
2018-04-14T09:44:48.937Z,37.97
2018-04-14T09:47:24.352Z,35.10
2018-04-14T09:49:58.781Z,37.40
2018-04-14T09:52:33.908Z,38.73
2018-04-14T09:55:08.304Z,27.33
2018-04-14T09:57:42.734Z,34.70
2018-04-14T10:00:22.791Z,41.40
2018-04-14T10:03:00.154Z,39.07
2018-04-14T10:05:34.404Z,36.23
2018-04-14T10:08:08.675Z,35.97
2018-04-14T10:10:43.168Z,38.13
2018-04-14T10:13:17.468Z,38.87
2018-04-14T10:15:53.363Z,37.77
2018-04-14T10:18:27.847Z,46.37
2018-04-14T10:21:02.480Z,41.50
2018-04-14T10:23:36.748Z,36.53
2018-04-14T10:26:11.013Z,37.87
2018-04-14T10:28:45.536Z,51.33
2018-04-14T10:31:19.852Z,41.60
2018-04-14T10:33:54.379Z,39.03
2018-04-14T10:36:29.412Z,47.03
2018-04-14T10:39:03.817Z,44.60
2018-04-14T10:41:38.234Z,45.47
2018-04-14T10:44:13.373Z,41.73
2018-04-14T10:46:47.804Z,48.60
2018-04-14T10:49:22.876Z,46.43
2018-04-14T10:51:57.245Z,43.13
2018-04-14T10:54:31.559Z,48.67
2018-04-14T10:57:05.861Z,47.90
2018-04-14T10:59:40.417Z,42.43
2018-04-14T11:02:14.832Z,43.67
2018-04-14T11:04:49.147Z,46.93
2018-04-14T11:07:23.584Z,41.10
2018-04-14T11:09:57.884Z,47.30
2018-04-14T11:12:32.316Z,43.80
2018-04-14T11:15:06.729Z,42.83
2018-04-14T11:17:41.064Z,47.53
2018-04-14T11:20:15.488Z,44.93
2018-04-14T11:22:49.907Z,42.83
2018-04-14T11:25:24.325Z,33.60
2018-04-14T11:27:58.753Z,36.17
2018-04-14T11:30:33.078Z,31.53
2018-04-14T11:33:07.488Z,27.13
2018-04-14T11:35:42.528Z,31.03
2018-04-14T11:38:17.761Z,38.30
2018-04-14T11:40:52.185Z,26.60
2018-04-14T11:43:26.529Z,27.17
2018-04-14T11:46:00.908Z,19.77
2018-04-14T11:48:35.343Z,26.43
2018-04-14T11:51:09.776Z,21.83
2018-04-14T11:53:44.172Z,24.27
2018-04-14T11:56:18.551Z,18.50
2018-04-14T11:58:52.880Z,29.80
2018-04-14T12:01:28.185Z,30.43
2018-04-14T12:04:03.386Z,23.40
2018-04-14T12:06:37.784Z,36.37
2018-04-14T12:09:12.349Z,24.30
2018-04-14T12:11:46.769Z,29.57
2018-04-14T12:14:21.188Z,21.60
2018-04-14T12:16:55.609Z,35.03
2018-04-14T12:19:29.896Z,31.47
2018-04-14T12:22:04.433Z,23.37
2018-04-14T12:24:39.667Z,20.87
2018-04-14T12:27:14.208Z,23.43
2018-04-14T12:29:48.505Z,30.07
2018-04-14T12:32:22.952Z,26.40
2018-04-14T12:34:57.350Z,37.33
2018-04-14T12:37:31.776Z,22.83
2018-04-14T12:40:06.089Z,32.67
2018-04-14T12:42:40.388Z,28.20
2018-04-14T12:45:14.657Z,22.50
2018-04-14T12:47:49.160Z,19.13
2018-04-14T12:50:23.796Z,35.93
2018-04-14T12:52:58.936Z,28.03
2018-04-14T12:55:33.357Z,31.90
2018-04-14T12:58:07.624Z,34.07
2018-04-14T13:00:41.973Z,19.67
2018-04-14T13:03:16.304Z,23.77
2018-04-14T13:05:50.812Z,17.17
2018-04-14T13:08:25.971Z,27.00
2018-04-14T13:11:00.596Z,42.87
2018-04-14T13:13:34.852Z,40.27
2018-04-14T13:16:09.240Z,36.03
2018-04-14T13:18:43.645Z,23.47
2018-04-14T13:21:18.788Z,36.13
2018-04-14T13:23:53.216Z,30.90
2018-04-14T13:26:27.693Z,36.27
2018-04-14T13:29:02.080Z,35.40
2018-04-14T13:31:36.484Z,37.10
2018-04-14T13:34:10.888Z,20.83
2018-04-14T13:36:45.320Z,25.03
2018-04-14T13:39:19.840Z,45.97
2018-04-14T13:41:54.144Z,39.43
2018-04-14T13:44:28.476Z,39.47
2018-04-14T13:47:02.997Z,24.67
2018-04-14T13:49:37.260Z,25.17
2018-04-14T13:52:11.572Z,43.17
2018-04-14T13:54:45.844Z,31.23
2018-04-14T13:57:20.263Z,22.90
2018-04-14T13:59:54.777Z,35.97
2018-04-14T14:02:29.208Z,34.47
2018-04-14T14:05:03.484Z,19.00
2018-04-14T14:07:37.936Z,26.53
2018-04-14T14:10:12.476Z,20.07
2018-04-14T14:12:46.908Z,28.27
2018-04-14T14:15:21.368Z,39.07
2018-04-14T14:17:55.925Z,22.50
2018-04-14T14:20:30.364Z,34.63
2018-04-14T14:23:04.721Z,35.47
2018-04-14T14:25:39.232Z,40.27
2018-04-14T14:28:14.433Z,46.67
2018-04-14T14:30:49.587Z,40.40
2018-04-14T14:33:24.095Z,31.90
2018-04-14T14:35:59.312Z,41.77
2018-04-14T14:38:33.868Z,43.60
2018-04-14T14:41:08.208Z,43.17
2018-04-14T14:43:42.588Z,26.33
2018-04-14T14:46:16.915Z,39.77
2018-04-14T14:48:51.437Z,31.70
2018-04-14T14:51:25.861Z,37.37
2018-04-14T14:54:00.392Z,23.27
2018-04-14T14:56:34.888Z,33.97
2018-04-14T14:59:09.379Z,44.50
2018-04-14T15:01:44.392Z,36.37
2018-04-14T15:04:18.868Z,29.90
2018-04-14T15:06:53.232Z,35.77
2018-04-14T15:09:27.715Z,34.47
2018-04-14T15:12:02.134Z,22.43
2018-04-14T15:14:37.170Z,28.97
2018-04-14T15:17:11.716Z,34.43
2018-04-14T15:19:46.221Z,25.53
2018-04-14T15:22:20.644Z,26.97
2018-04-14T15:24:55.096Z,44.57
2018-04-14T15:27:29.401Z,34.57
2018-04-14T15:30:04.517Z,36.53
2018-04-14T15:32:39.076Z,28.77
2018-04-14T15:35:13.569Z,29.83
2018-04-14T15:37:47.852Z,36.27
2018-04-14T15:40:22.192Z,39.87
2018-04-14T15:42:56.740Z,40.57
2018-04-14T15:45:31.861Z,30.93
2018-04-14T15:48:07.202Z,35.27
2018-04-14T15:50:41.952Z,20.83
2018-04-14T15:53:16.352Z,36.63
2018-04-14T15:55:51.601Z,36.20
2018-04-14T15:58:26.132Z,29.33
2018-04-14T16:01:00.448Z,34.63
2018-04-14T16:03:34.764Z,27.90
2018-04-14T16:06:09.197Z,34.77
2018-04-14T16:08:43.712Z,36.33
2018-04-14T16:11:18.002Z,20.20
2018-04-14T16:13:53.253Z,33.70
2018-04-14T16:16:27.707Z,27.40
2018-04-14T16:19:02.265Z,21.87
2018-04-14T16:21:36.745Z,17.20
2018-04-14T16:24:11.270Z,27.10
2018-04-14T16:26:45.577Z,34.80
2018-04-14T16:29:20.204Z,26.50
2018-04-14T16:31:54.712Z,32.27
2018-04-14T16:34:29.273Z,31.17
2018-04-14T16:37:03.692Z,40.10
2018-04-14T16:39:37.970Z,39.43
2018-04-14T16:42:12.327Z,43.80
2018-04-14T16:44:46.603Z,39.63
2018-04-14T16:47:20.948Z,32.83
2018-04-14T16:49:55.742Z,26.20
2018-04-14T16:52:30.218Z,25.27
2018-04-14T16:55:04.757Z,26.73
2018-04-14T16:57:39.053Z,34.27
2018-04-14T17:00:13.444Z,43.80
2018-04-14T17:02:47.784Z,48.17
2018-04-14T17:05:22.872Z,48.27
2018-04-14T17:07:57.340Z,50.90
2018-04-14T17:10:31.768Z,53.93
2018-04-14T17:13:06.274Z,50.80
2018-04-14T17:15:40.880Z,46.23
2018-04-14T17:18:15.192Z,45.53
2018-04-14T17:20:49.565Z,50.17
2018-04-14T17:23:25.391Z,48.13
2018-04-14T17:25:59.848Z,47.23
2018-04-14T17:28:34.224Z,48.30
2018-04-14T17:31:09.264Z,49.83
2018-04-14T17:33:43.698Z,47.00
2018-04-14T17:36:18.220Z,54.73
2018-04-14T17:38:52.947Z,46.07
2018-04-14T17:41:27.476Z,41.43
2018-04-14T17:44:01.894Z,47.27
2018-04-14T17:46:36.204Z,44.30
2018-04-14T17:49:10.743Z,46.07
2018-04-14T17:51:46.056Z,42.33
2018-04-14T17:54:20.388Z,45.97
2018-04-14T17:56:54.937Z,48.90
2018-04-14T17:59:29.478Z,41.87
2018-04-14T18:02:03.968Z,41.90
2018-04-14T18:04:38.476Z,45.17
2018-04-14T18:07:12.772Z,47.00
2018-04-14T18:09:47.061Z,45.53
2018-04-14T18:12:22.134Z,45.30
2018-04-14T18:14:56.584Z,48.20
2018-04-14T18:17:31.106Z,43.03
2018-04-14T18:20:05.624Z,48.20
2018-04-14T18:22:39.888Z,50.97
2018-04-14T18:25:14.246Z,42.83
2018-04-14T18:27:48.788Z,45.07
2018-04-14T18:30:23.073Z,38.97
2018-04-14T18:32:58.248Z,38.97
2018-04-14T18:35:32.769Z,40.80
2018-04-14T18:38:07.165Z,43.33
2018-04-14T18:40:42.321Z,40.50
2018-04-14T18:43:16.740Z,44.73
2018-04-14T18:45:51.057Z,41.43
2018-04-14T18:48:26.406Z,41.47
2018-04-14T18:51:00.925Z,40.63
2018-04-14T18:53:35.313Z,40.23
2018-04-14T18:56:10.486Z,41.37
2018-04-14T18:58:45.589Z,41.17
2018-04-14T19:01:19.932Z,45.37
2018-04-14T19:03:54.358Z,42.70
2018-04-14T19:06:28.640Z,40.80
2018-04-14T19:09:03.028Z,42.17
2018-04-14T19:11:37.320Z,44.57
2018-04-14T19:14:11.596Z,43.77
2018-04-14T19:16:46.061Z,42.80
2018-04-14T19:19:20.373Z,45.43
2018-04-14T19:21:54.896Z,42.77
2018-04-14T19:24:30.036Z,46.30
2018-04-14T19:27:05.145Z,42.90
2018-04-14T19:29:39.599Z,45.43
2018-04-14T19:32:15.484Z,48.33
2018-04-14T19:34:49.976Z,45.50
2018-04-14T19:37:24.490Z,45.53
2018-04-14T19:39:58.915Z,40.90
2018-04-14T19:42:33.435Z,45.47
2018-04-14T19:45:07.761Z,43.33
2018-04-14T19:47:42.171Z,41.67
2018-04-14T19:50:16.596Z,42.80
2018-04-14T19:52:50.992Z,44.70
2018-04-14T19:55:25.372Z,43.53
2018-04-14T19:57:59.833Z,42.00
2018-04-14T20:00:34.262Z,42.47
2018-04-14T20:03:08.612Z,45.20
2018-04-14T20:05:43.108Z,42.30
2018-04-14T20:08:17.748Z,45.43
2018-04-14T20:10:52.048Z,45.10
2018-04-14T20:13:26.366Z,40.93
2018-04-14T20:16:00.991Z,43.60
2018-04-14T20:18:35.412Z,42.80
2018-04-14T20:21:10.057Z,42.60
2018-04-14T20:23:44.400Z,47.13
2018-04-14T20:26:18.880Z,43.07
2018-04-14T20:28:54.117Z,47.87
2018-04-14T20:31:28.572Z,42.57
2018-04-14T20:34:03.064Z,49.10
2018-04-14T20:36:37.504Z,45.57
2018-04-14T20:39:12.133Z,43.17
2018-04-14T20:41:46.640Z,41.73
2018-04-14T20:44:21.278Z,43.70
2018-04-14T20:46:55.908Z,44.80
2018-04-14T20:49:30.325Z,45.47
2018-04-14T20:52:04.655Z,41.03
2018-04-14T20:54:39.092Z,43.67
2018-04-14T20:57:13.580Z,46.60
2018-04-14T20:59:48.044Z,43.93
2018-04-14T21:02:22.510Z,43.50
2018-04-14T21:04:57.664Z,44.47
2018-04-14T21:07:32.052Z,44.07
2018-04-14T21:10:06.481Z,46.67
2018-04-14T21:12:40.909Z,42.37
2018-04-14T21:15:15.993Z,47.03
2018-04-14T21:17:50.589Z,44.50
2018-04-14T21:20:25.014Z,41.57
2018-04-14T21:22:59.343Z,45.17
2018-04-14T21:25:34.568Z,44.27
2018-04-14T21:28:08.969Z,47.27
2018-04-14T21:30:43.316Z,47.50
2018-04-14T21:33:17.824Z,44.43
2018-04-14T21:35:52.330Z,44.07
2018-04-14T21:38:26.883Z,43.27
2018-04-14T21:41:01.400Z,40.87
2018-04-14T21:43:36.024Z,48.10
2018-04-14T21:46:10.430Z,50.13
2018-04-14T21:48:44.964Z,43.90
2018-04-14T21:51:19.473Z,46.17
2018-04-14T21:53:53.805Z,46.60
2018-04-14T21:56:28.136Z,49.63
2018-04-14T21:59:02.860Z,51.77
2018-04-14T22:01:38.305Z,45.07
2018-04-14T22:04:12.721Z,49.43
2018-04-14T22:06:47.739Z,47.37
2018-04-14T22:09:23.101Z,49.70
2018-04-14T22:11:57.425Z,50.90
2018-04-14T22:14:32.635Z,46.90
2018-04-14T22:17:07.064Z,54.97
2018-04-14T22:19:41.500Z,46.80
2018-04-14T22:22:15.921Z,50.17
2018-04-14T22:24:50.244Z,44.53
2018-04-14T22:27:24.535Z,49.47
2018-04-14T22:29:58.836Z,45.03
2018-04-14T22:32:34.004Z,45.37
2018-04-14T22:35:08.536Z,47.70
2018-04-14T22:37:42.953Z,47.53
2018-04-14T22:40:17.243Z,49.43
2018-04-14T22:42:51.674Z,47.47
2018-04-14T22:45:26.325Z,45.60
2018-04-14T22:48:00.829Z,49.60
2018-04-14T22:50:35.268Z,48.20
2018-04-14T22:53:09.688Z,47.60
2018-04-14T22:55:44.081Z,47.93
2018-04-14T22:58:18.612Z,53.00
2018-04-14T23:00:53.059Z,52.27
2018-04-14T23:03:28.887Z,47.03
2018-04-14T23:06:04.128Z,52.50
2018-04-14T23:08:38.464Z,48.80
2018-04-14T23:11:12.787Z,47.50
2018-04-14T23:13:47.219Z,49.07
2018-04-14T23:16:22.340Z,47.70
2018-04-14T23:18:56.775Z,49.67
2018-04-14T23:21:31.217Z,49.87
2018-04-14T23:24:05.804Z,49.20
2018-04-14T23:26:40.328Z,43.77
2018-04-14T23:29:14.835Z,44.13
2018-04-14T23:31:49.149Z,49.33
2018-04-14T23:34:23.469Z,47.60
2018-04-14T23:36:58.507Z,52.73
2018-04-14T23:39:33.532Z,47.77
2018-04-14T23:42:08.084Z,52.97
2018-04-14T23:44:42.477Z,44.03
2018-04-14T23:47:17.020Z,50.67
2018-04-14T23:49:51.548Z,46.80
2018-04-14T23:52:26.053Z,47.97
2018-04-14T23:55:00.492Z,43.13
2018-04-14T23:57:35.013Z,48.03
